createdAt,value
2017-02-17T00:01:09.346Z,1012.65
2017-02-17T00:02:19.534Z,1012.63
2017-02-17T00:03:29.291Z,1012.63
2017-02-17T00:04:38.680Z,1012.61
2017-02-17T00:05:48.436Z,1012.56
2017-02-17T00:06:58.644Z,1012.55
2017-02-17T00:08:08.838Z,1012.54
2017-02-17T00:09:18.170Z,1012.54
2017-02-17T00:10:28.408Z,1012.57
2017-02-17T00:11:39.031Z,1012.51
2017-02-17T00:12:48.394Z,1012.47
2017-02-17T00:13:58.160Z,1012.5
2017-02-17T00:15:07.912Z,1012.47
2017-02-17T00:16:17.750Z,1012.46
2017-02-17T00:17:27.965Z,1012.45
2017-02-17T00:18:37.293Z,1012.4
2017-02-17T00:19:47.470Z,1012.35
2017-02-17T00:20:56.792Z,1012.38
2017-02-17T00:22:06.176Z,1012.36
2017-02-17T00:23:16.385Z,1012.35
2017-02-17T00:24:25.708Z,1012.34
2017-02-17T00:25:35.904Z,1012.31
2017-02-17T00:26:45.676Z,1012.33
2017-02-17T00:27:55.517Z,1012.26
2017-02-17T00:29:04.846Z,1012.28
2017-02-17T00:30:14.593Z,1012.29
2017-02-17T00:31:24.793Z,1012.23
2017-02-17T00:32:34.986Z,1012.23
2017-02-17T00:33:44.792Z,1012.26
2017-02-17T00:34:54.562Z,1012.22
2017-02-17T00:36:04.323Z,1012.25
2017-02-17T00:37:14.527Z,1012.29
2017-02-17T00:38:24.288Z,1012.23
2017-02-17T00:39:34.630Z,1012.23
2017-02-17T00:40:44.414Z,1012.25
2017-02-17T00:41:53.747Z,1012.24
2017-02-17T00:43:03.943Z,1012.24
2017-02-17T00:44:13.698Z,1012.24
2017-02-17T00:45:23.543Z,1012.22
2017-02-17T00:46:33.292Z,1012.23
2017-02-17T00:47:43.512Z,1012.21
2017-02-17T00:48:53.689Z,1012.21
2017-02-17T00:50:03.026Z,1012.19
2017-02-17T00:51:12.833Z,1012.16
2017-02-17T00:52:23.012Z,1012.17
2017-02-17T00:53:32.320Z,1012.17
2017-02-17T00:54:42.554Z,1012.15
2017-02-17T00:55:52.760Z,1012.18
2017-02-17T00:57:02.571Z,1012.16
2017-02-17T00:58:11.892Z,1012.14
2017-02-17T00:59:22.538Z,1012.14
2017-02-17T01:00:32.304Z,1012.12
2017-02-17T01:01:41.630Z,1012.12
2017-02-17T01:02:51.157Z,1012.13
2017-02-17T01:04:00.915Z,1012.13
2017-02-17T01:05:11.136Z,1012.14
2017-02-17T01:06:20.500Z,1012.15
2017-02-17T01:07:29.833Z,1012.21
2017-02-17T01:08:39.629Z,1012.16
2017-02-17T01:09:48.942Z,1012.11
2017-02-17T01:10:58.673Z,1012.15
2017-02-17T01:12:08.459Z,1012.11
2017-02-17T01:13:18.227Z,1012.11
2017-02-17T01:14:28.025Z,1012.07
2017-02-17T01:15:38.218Z,1012.1
2017-02-17T01:16:48.027Z,1012.06
2017-02-17T01:17:57.780Z,1012.07
2017-02-17T01:19:07.982Z,1012.1
2017-02-17T01:20:17.343Z,1012.11
2017-02-17T01:21:26.660Z,1012.09
2017-02-17T01:22:36.866Z,1012.07
2017-02-17T01:23:47.063Z,1012.07
2017-02-17T01:24:57.708Z,1012.06
2017-02-17T01:26:07.293Z,1012.09
2017-02-17T01:27:17.066Z,1012.06
2017-02-17T01:28:27.271Z,1012.06
2017-02-17T01:29:37.066Z,1012.04
2017-02-17T01:30:46.811Z,1012.04
2017-02-17T01:31:56.659Z,1012.03
2017-02-17T01:33:07.285Z,1012.01
2017-02-17T01:34:17.055Z,1012.01
2017-02-17T01:35:26.366Z,1012
2017-02-17T01:36:36.131Z,1011.95
2017-02-17T01:37:46.408Z,1011.96
2017-02-17T01:38:56.215Z,1011.94
2017-02-17T01:40:05.551Z,1011.93
2017-02-17T01:41:15.736Z,1011.92
2017-02-17T01:42:26.379Z,1011.92
2017-02-17T01:43:36.180Z,1011.87
2017-02-17T01:44:45.485Z,1011.9
2017-02-17T01:45:54.829Z,1011.89
2017-02-17T01:47:04.159Z,1011.86
2017-02-17T01:48:13.924Z,1011.86
2017-02-17T01:49:23.328Z,1011.83
2017-02-17T01:50:33.529Z,1011.84
2017-02-17T01:51:43.717Z,1011.84
2017-02-17T01:52:53.915Z,1011.84
2017-02-17T01:54:03.222Z,1011.85
2017-02-17T01:55:13.174Z,1011.8
2017-02-17T01:56:23.379Z,1011.75
2017-02-17T01:57:33.600Z,1011.78
2017-02-17T01:58:43.778Z,1011.73
2017-02-17T01:59:53.110Z,1011.73
2017-02-17T02:01:03.355Z,1011.69
2017-02-17T02:02:12.701Z,1011.68
2017-02-17T02:03:22.458Z,1011.72
2017-02-17T02:04:32.215Z,1011.69
2017-02-17T02:05:41.974Z,1011.68
2017-02-17T02:06:51.789Z,1011.68
2017-02-17T02:08:01.979Z,1011.6
2017-02-17T02:09:11.729Z,1011.6
2017-02-17T02:10:21.481Z,1011.59
2017-02-17T02:11:30.824Z,1011.56
2017-02-17T02:12:41.061Z,1011.55
2017-02-17T02:13:50.817Z,1011.48
2017-02-17T02:15:01.018Z,1011.53
2017-02-17T02:16:10.775Z,1011.51
2017-02-17T02:17:20.984Z,1011.47
2017-02-17T02:18:31.659Z,1011.45
2017-02-17T02:19:41.409Z,1011.42
2017-02-17T02:20:52.056Z,1011.46
2017-02-17T02:22:01.362Z,1011.37
2017-02-17T02:23:11.115Z,1011.36
2017-02-17T02:24:20.481Z,1011.37
2017-02-17T02:25:29.817Z,1011.36
2017-02-17T02:26:39.133Z,1011.39
2017-02-17T02:27:49.771Z,1011.33
2017-02-17T02:28:59.952Z,1011.31
2017-02-17T02:30:09.818Z,1011.27
2017-02-17T02:31:19.568Z,1011.29
2017-02-17T02:32:28.901Z,1011.22
2017-02-17T02:33:38.253Z,1011.23
2017-02-17T02:34:48.451Z,1011.22
2017-02-17T02:35:58.701Z,1011.25
2017-02-17T02:37:08.453Z,1011.17
2017-02-17T02:38:18.230Z,1011.18
2017-02-17T02:39:28.431Z,1011.17
2017-02-17T02:40:37.751Z,1011.16
2017-02-17T02:41:47.609Z,1011.1
2017-02-17T02:42:57.782Z,1011.11
2017-02-17T02:44:08.391Z,1011.12
2017-02-17T02:45:18.578Z,1011.08
2017-02-17T02:46:28.326Z,1011.03
2017-02-17T02:47:38.658Z,1011.03
2017-02-17T02:48:48.858Z,1011
2017-02-17T02:49:59.053Z,1010.99
2017-02-17T02:51:09.258Z,1010.95
2017-02-17T02:52:19.009Z,1010.95
2017-02-17T02:53:28.900Z,1010.95
2017-02-17T02:54:38.651Z,1010.94
2017-02-17T02:55:48.843Z,1010.97
2017-02-17T02:56:59.029Z,1010.99
2017-02-17T02:58:08.794Z,1011
2017-02-17T02:59:19.033Z,1010.98
2017-02-17T03:00:28.356Z,1011
2017-02-17T03:01:37.673Z,1010.94
2017-02-17T03:02:48.300Z,1010.96
2017-02-17T03:03:58.941Z,1010.86
2017-02-17T03:05:08.321Z,1010.91
2017-02-17T03:06:17.627Z,1010.87
2017-02-17T03:07:27.395Z,1010.92
2017-02-17T03:08:37.581Z,1010.9
2017-02-17T03:09:47.341Z,1010.9
2017-02-17T03:10:57.571Z,1010.85
2017-02-17T03:12:07.323Z,1010.85
2017-02-17T03:13:18.385Z,1010.77
2017-02-17T03:14:28.124Z,1010.82
2017-02-17T03:15:38.309Z,1010.81
2017-02-17T03:16:48.693Z,1010.82
2017-02-17T03:17:58.441Z,1010.82
2017-02-17T03:19:08.648Z,1010.8
2017-02-17T03:20:19.281Z,1010.8
2017-02-17T03:21:29.475Z,1010.81
2017-02-17T03:22:38.847Z,1010.81
2017-02-17T03:23:48.184Z,1010.75
2017-02-17T03:24:57.960Z,1010.72
2017-02-17T03:26:08.160Z,1010.68
2017-02-17T03:27:18.331Z,1010.67
2017-02-17T03:28:28.121Z,1010.71
2017-02-17T03:29:37.431Z,1010.72
2017-02-17T03:30:47.628Z,1010.68
2017-02-17T03:31:56.957Z,1010.75
2017-02-17T03:33:07.610Z,1010.78
2017-02-17T03:34:17.418Z,1010.83
2017-02-17T03:35:28.053Z,1010.87
2017-02-17T03:36:37.838Z,1010.87
2017-02-17T03:37:47.603Z,1010.84
2017-02-17T03:38:58.224Z,1010.92
2017-02-17T03:40:08.451Z,1010.84
2017-02-17T03:41:18.210Z,1010.76
2017-02-17T03:42:28.857Z,1010.77
2017-02-17T03:43:39.489Z,1010.76
2017-02-17T03:44:49.244Z,1010.74
2017-02-17T03:45:59.051Z,1010.77
2017-02-17T03:47:08.363Z,1010.78
2017-02-17T03:48:18.120Z,1010.82
2017-02-17T03:49:27.861Z,1010.83
2017-02-17T03:50:37.611Z,1010.86
2017-02-17T03:51:47.851Z,1010.84
2017-02-17T03:52:58.038Z,1010.9
2017-02-17T03:54:08.675Z,1010.85
2017-02-17T03:55:17.991Z,1010.84
2017-02-17T03:56:27.740Z,1010.83
2017-02-17T03:57:37.562Z,1010.84
2017-02-17T03:58:47.750Z,1010.84
2017-02-17T03:59:57.958Z,1010.82
2017-02-17T04:01:08.165Z,1010.81
2017-02-17T04:02:17.918Z,1010.79
2017-02-17T04:03:27.849Z,1010.69
2017-02-17T04:04:38.022Z,1010.7
2017-02-17T04:05:47.774Z,1010.65
2017-02-17T04:06:57.948Z,1010.61
2017-02-17T04:08:07.696Z,1010.69
2017-02-17T04:09:17.511Z,1010.66
2017-02-17T04:10:27.259Z,1010.64
2017-02-17T04:11:37.021Z,1010.58
2017-02-17T04:12:46.778Z,1010.57
2017-02-17T04:13:57.856Z,1010.64
2017-02-17T04:15:08.094Z,1010.64
2017-02-17T04:16:18.270Z,1010.64
2017-02-17T04:17:27.587Z,1010.67
2017-02-17T04:18:37.352Z,1010.67
2017-02-17T04:19:47.526Z,1010.7
2017-02-17T04:20:57.321Z,1010.59
2017-02-17T04:22:07.511Z,1010.62
2017-02-17T04:23:17.255Z,1010.56
2017-02-17T04:24:27.008Z,1010.59
2017-02-17T04:25:37.189Z,1010.59
2017-02-17T04:26:47.428Z,1010.56
2017-02-17T04:27:58.040Z,1010.59
2017-02-17T04:29:08.225Z,1010.58
2017-02-17T04:30:17.989Z,1010.58
2017-02-17T04:31:28.197Z,1010.59
2017-02-17T04:32:38.861Z,1010.52
2017-02-17T04:33:48.177Z,1010.56
2017-02-17T04:34:57.963Z,1010.54
2017-02-17T04:36:07.711Z,1010.49
2017-02-17T04:37:17.897Z,1010.51
2017-02-17T04:38:28.596Z,1010.49
2017-02-17T04:39:37.917Z,1010.5
2017-02-17T04:40:47.667Z,1010.52
2017-02-17T04:41:57.843Z,1010.5
2017-02-17T04:43:07.613Z,1010.49
2017-02-17T04:44:17.464Z,1010.42
2017-02-17T04:45:27.213Z,1010.39
2017-02-17T04:46:37.408Z,1010.37
2017-02-17T04:47:47.164Z,1010.32
2017-02-17T04:48:56.903Z,1010.32
2017-02-17T04:50:07.296Z,1010.29
2017-02-17T04:51:18.356Z,1010.23
2017-02-17T04:52:28.535Z,1010.26
2017-02-17T04:53:38.742Z,1010.22
2017-02-17T04:54:48.492Z,1010.22
2017-02-17T04:55:59.644Z,1010.22
2017-02-17T04:57:09.831Z,1010.16
2017-02-17T04:58:19.572Z,1010.2
2017-02-17T04:59:30.233Z,1010.19
2017-02-17T05:00:39.563Z,1010.22
2017-02-17T05:01:49.346Z,1010.33
2017-02-17T05:02:59.536Z,1010.31
2017-02-17T05:04:09.312Z,1010.33
2017-02-17T05:05:18.638Z,1010.33
2017-02-17T05:06:28.851Z,1010.32
2017-02-17T05:07:39.116Z,1010.33
2017-02-17T05:08:48.439Z,1010.31
2017-02-17T05:09:59.046Z,1010.29
2017-02-17T05:11:09.235Z,1010.25
2017-02-17T05:12:19.415Z,1010.17
2017-02-17T05:13:29.232Z,1010.19
2017-02-17T05:14:39.448Z,1010.1
2017-02-17T05:15:49.214Z,1010.09
2017-02-17T05:16:58.522Z,1010.06
2017-02-17T05:18:08.692Z,1010.07
2017-02-17T05:19:18.480Z,1010.05
2017-02-17T05:20:29.110Z,1010.07
2017-02-17T05:21:38.854Z,1010.1
2017-02-17T05:22:48.169Z,1010.1
2017-02-17T05:23:58.358Z,1010.08
2017-02-17T05:25:08.181Z,1010.07
2017-02-17T05:26:18.372Z,1010.05
2017-02-17T05:27:27.715Z,1010.11
2017-02-17T05:28:37.469Z,1010.03
2017-02-17T05:29:46.815Z,1010.06
2017-02-17T05:30:56.611Z,1009.97
2017-02-17T05:32:06.357Z,1010.07
2017-02-17T05:33:16.102Z,1009.99
2017-02-17T05:34:25.409Z,1009.99
2017-02-17T05:35:35.176Z,1009.98
2017-02-17T05:36:45.410Z,1009.94
2017-02-17T05:37:55.150Z,1010.01
2017-02-17T05:39:05.333Z,1009.96
2017-02-17T05:40:15.535Z,1009.93
2017-02-17T05:41:25.279Z,1009.99
2017-02-17T05:42:35.499Z,1009.94
2017-02-17T05:43:45.246Z,1009.91
2017-02-17T05:44:55.891Z,1009.92
2017-02-17T05:46:06.068Z,1009.95
2017-02-17T05:47:15.376Z,1009.92
2017-02-17T05:48:25.181Z,1009.91
2017-02-17T05:49:35.379Z,1009.93
2017-02-17T05:50:45.569Z,1009.91
2017-02-17T05:51:54.886Z,1009.93
2017-02-17T05:53:04.676Z,1009.91
2017-02-17T05:54:14.476Z,1009.95
2017-02-17T05:55:25.096Z,1009.91
2017-02-17T05:56:34.849Z,1009.96
2017-02-17T05:57:44.160Z,1009.95
2017-02-17T05:58:53.486Z,1009.9
2017-02-17T06:00:04.189Z,1009.8
2017-02-17T06:01:13.500Z,1009.78
2017-02-17T06:02:23.736Z,1009.79
2017-02-17T06:03:33.493Z,1009.75
2017-02-17T06:04:44.119Z,1009.79
2017-02-17T06:05:54.361Z,1009.78
2017-02-17T06:07:04.544Z,1009.72
2017-02-17T06:08:14.753Z,1009.74
2017-02-17T06:09:24.495Z,1009.75
2017-02-17T06:10:34.278Z,1009.75
2017-02-17T06:11:44.111Z,1009.75
2017-02-17T06:12:54.324Z,1009.72
2017-02-17T06:14:04.515Z,1009.78
2017-02-17T06:15:13.856Z,1009.8
2017-02-17T06:16:23.165Z,1009.76
2017-02-17T06:17:33.402Z,1009.74
2017-02-17T06:18:43.173Z,1009.75
2017-02-17T06:19:53.347Z,1009.79
2017-02-17T06:21:03.538Z,1009.83
2017-02-17T06:22:12.860Z,1009.83
2017-02-17T06:23:22.661Z,1009.84
2017-02-17T06:24:32.865Z,1009.78
2017-02-17T06:25:43.480Z,1009.76
2017-02-17T06:26:53.665Z,1009.78
2017-02-17T06:28:03.412Z,1009.77
2017-02-17T06:29:12.782Z,1009.74
2017-02-17T06:30:22.550Z,1009.76
2017-02-17T06:31:31.859Z,1009.76
2017-02-17T06:32:42.036Z,1009.7
2017-02-17T06:33:52.222Z,1009.7
2017-02-17T06:35:03.541Z,1009.66
2017-02-17T06:36:13.308Z,1009.63
2017-02-17T06:37:23.487Z,1009.7
2017-02-17T06:38:33.233Z,1009.68
2017-02-17T06:39:42.562Z,1009.72
2017-02-17T06:40:51.923Z,1009.7
2017-02-17T06:42:02.128Z,1009.73
2017-02-17T06:43:11.892Z,1009.73
2017-02-17T06:44:21.646Z,1009.73
2017-02-17T06:45:31.818Z,1009.76
2017-02-17T06:46:42.196Z,1009.72
2017-02-17T06:47:52.381Z,1009.73
2017-02-17T06:49:02.601Z,1009.7
2017-02-17T06:50:12.360Z,1009.7
2017-02-17T06:51:21.697Z,1009.7
2017-02-17T06:52:31.064Z,1009.69
2017-02-17T06:53:40.367Z,1009.72
2017-02-17T06:54:50.567Z,1009.7
2017-02-17T06:55:59.890Z,1009.69
2017-02-17T06:57:10.070Z,1009.76
2017-02-17T06:58:19.451Z,1009.72
2017-02-17T06:59:28.761Z,1009.73
2017-02-17T07:00:38.956Z,1009.72
2017-02-17T07:01:49.164Z,1009.7
2017-02-17T07:02:59.385Z,1009.71
2017-02-17T07:04:09.648Z,1009.71
2017-02-17T07:05:19.843Z,1009.66
2017-02-17T07:06:29.592Z,1009.68
2017-02-17T07:07:39.347Z,1009.63
2017-02-17T07:08:48.654Z,1009.64
2017-02-17T07:09:58.466Z,1009.59
2017-02-17T07:11:08.224Z,1009.61
2017-02-17T07:12:18.449Z,1009.65
2017-02-17T07:13:27.760Z,1009.64
2017-02-17T07:14:37.513Z,1009.65
2017-02-17T07:15:47.339Z,1009.68
2017-02-17T07:16:56.682Z,1009.65
2017-02-17T07:18:06.426Z,1009.61
2017-02-17T07:19:16.608Z,1009.61
2017-02-17T07:20:26.388Z,1009.67
2017-02-17T07:21:37.055Z,1009.63
2017-02-17T07:22:46.816Z,1009.65
2017-02-17T07:23:56.575Z,1009.6
2017-02-17T07:25:05.916Z,1009.63
2017-02-17T07:26:16.109Z,1009.64
2017-02-17T07:27:26.799Z,1009.65
2017-02-17T07:28:36.544Z,1009.68
2017-02-17T07:29:46.302Z,1009.68
2017-02-17T07:30:56.484Z,1009.69
2017-02-17T07:32:05.788Z,1009.7
2017-02-17T07:33:15.614Z,1009.68
2017-02-17T07:34:24.952Z,1009.68
2017-02-17T07:35:35.149Z,1009.69
2017-02-17T07:36:44.928Z,1009.65
2017-02-17T07:37:55.130Z,1009.68
2017-02-17T07:39:04.938Z,1009.67
2017-02-17T07:40:14.269Z,1009.65
2017-02-17T07:41:24.010Z,1009.67
2017-02-17T07:42:34.642Z,1009.65
2017-02-17T07:43:44.841Z,1009.67
2017-02-17T07:44:54.343Z,1009.65
2017-02-17T07:46:04.093Z,1009.69
2017-02-17T07:47:14.292Z,1009.62
2017-02-17T07:48:24.512Z,1009.68
2017-02-17T07:49:34.702Z,1009.61
2017-02-17T07:50:44.495Z,1009.62
2017-02-17T07:51:54.245Z,1009.6
2017-02-17T07:53:04.450Z,1009.58
2017-02-17T07:54:13.753Z,1009.56
2017-02-17T07:55:23.493Z,1009.53
2017-02-17T07:56:32.848Z,1009.54
2017-02-17T07:57:43.035Z,1009.52
2017-02-17T07:58:53.220Z,1009.47
2017-02-17T08:00:02.969Z,1009.5
2017-02-17T08:01:12.313Z,1009.49
2017-02-17T08:02:22.570Z,1009.46
2017-02-17T08:03:32.333Z,1009.43
2017-02-17T08:04:42.084Z,1009.43
2017-02-17T08:05:51.410Z,1009.46
2017-02-17T08:07:00.729Z,1009.48
2017-02-17T08:08:10.525Z,1009.45
2017-02-17T08:09:20.715Z,1009.47
2017-02-17T08:10:30.916Z,1009.5
2017-02-17T08:11:41.091Z,1009.53
2017-02-17T08:12:51.260Z,1009.58
2017-02-17T08:14:01.941Z,1009.54
2017-02-17T08:15:11.259Z,1009.6
2017-02-17T08:16:21.452Z,1009.58
2017-02-17T08:17:31.643Z,1009.57
2017-02-17T08:18:41.422Z,1009.56
2017-02-17T08:19:51.693Z,1009.57
2017-02-17T08:21:01.441Z,1009.55
2017-02-17T08:22:11.645Z,1009.52
2017-02-17T08:23:21.393Z,1009.55
2017-02-17T08:24:31.594Z,1009.56
2017-02-17T08:25:41.822Z,1009.53
2017-02-17T08:26:51.590Z,1009.55
2017-02-17T08:28:02.228Z,1009.54
2017-02-17T08:29:12.417Z,1009.55
2017-02-17T08:30:23.036Z,1009.55
2017-02-17T08:31:32.451Z,1009.57
2017-02-17T08:32:42.191Z,1009.58
2017-02-17T08:33:51.515Z,1009.57
2017-02-17T08:35:02.137Z,1009.58
2017-02-17T08:36:11.460Z,1009.58
2017-02-17T08:37:21.701Z,1009.59
2017-02-17T08:38:31.892Z,1009.57
2017-02-17T08:39:42.074Z,1009.59
2017-02-17T08:40:51.419Z,1009.54
2017-02-17T08:42:00.731Z,1009.57
2017-02-17T08:43:11.064Z,1009.61
2017-02-17T08:44:20.810Z,1009.64
2017-02-17T08:45:30.551Z,1009.64
2017-02-17T08:46:39.877Z,1009.65
2017-02-17T08:47:49.615Z,1009.65
2017-02-17T08:48:59.871Z,1009.66
2017-02-17T08:50:09.176Z,1009.66
2017-02-17T08:51:18.934Z,1009.65
2017-02-17T08:52:28.286Z,1009.6
2017-02-17T08:53:38.476Z,1009.58
2017-02-17T08:54:48.292Z,1009.65
2017-02-17T08:55:58.501Z,1009.6
2017-02-17T08:57:09.133Z,1009.59
2017-02-17T08:58:18.888Z,1009.62
2017-02-17T08:59:29.517Z,1009.59
2017-02-17T09:00:39.768Z,1009.59
2017-02-17T09:01:49.520Z,1009.52
2017-02-17T09:02:59.328Z,1009.59
2017-02-17T09:04:09.546Z,1009.6
2017-02-17T09:05:19.748Z,1009.48
2017-02-17T09:06:29.547Z,1009.52
2017-02-17T09:07:38.865Z,1009.51
2017-02-17T09:08:49.058Z,1009.46
2017-02-17T09:09:59.249Z,1009.46
2017-02-17T09:11:08.566Z,1009.47
2017-02-17T09:12:18.808Z,1009.44
2017-02-17T09:13:28.584Z,1009.47
2017-02-17T09:14:38.331Z,1009.45
2017-02-17T09:15:48.079Z,1009.5
2017-02-17T09:16:57.436Z,1009.49
2017-02-17T09:18:07.241Z,1009.47
2017-02-17T09:19:16.994Z,1009.44
2017-02-17T09:20:26.744Z,1009.44
2017-02-17T09:21:36.933Z,1009.4
2017-02-17T09:22:46.241Z,1009.43
2017-02-17T09:23:56.032Z,1009.45
2017-02-17T09:25:05.343Z,1009.47
2017-02-17T09:26:15.552Z,1009.47
2017-02-17T09:27:24.875Z,1009.44
2017-02-17T09:28:34.620Z,1009.48
2017-02-17T09:29:44.569Z,1009.5
2017-02-17T09:30:54.337Z,1009.45
2017-02-17T09:32:04.966Z,1009.51
2017-02-17T09:33:15.148Z,1009.49
2017-02-17T09:34:25.371Z,1009.5
2017-02-17T09:35:35.291Z,1009.51
2017-02-17T09:36:44.608Z,1009.55
2017-02-17T09:37:54.358Z,1009.53
2017-02-17T09:39:04.107Z,1009.57
2017-02-17T09:40:13.856Z,1009.55
2017-02-17T09:41:23.232Z,1009.61
2017-02-17T09:42:33.853Z,1009.53
2017-02-17T09:43:44.068Z,1009.6
2017-02-17T09:44:53.828Z,1009.55
2017-02-17T09:46:04.450Z,1009.55
2017-02-17T09:47:14.259Z,1009.57
2017-02-17T09:48:23.996Z,1009.52
2017-02-17T09:49:34.178Z,1009.55
2017-02-17T09:50:44.361Z,1009.5
2017-02-17T09:51:54.568Z,1009.53
2017-02-17T09:53:05.244Z,1009.52
2017-02-17T09:54:15.027Z,1009.52
2017-02-17T09:55:25.206Z,1009.51
2017-02-17T09:56:35.373Z,1009.53
2017-02-17T09:57:44.756Z,1009.53
2017-02-17T09:58:54.698Z,1009.57
2017-02-17T10:00:04.443Z,1009.54
2017-02-17T10:01:13.748Z,1009.55
2017-02-17T10:02:23.080Z,1009.6
2017-02-17T10:03:32.832Z,1009.6
2017-02-17T10:04:42.658Z,1009.62
2017-02-17T10:05:52.847Z,1009.58
2017-02-17T10:07:03.063Z,1009.56
2017-02-17T10:08:13.241Z,1009.57
2017-02-17T10:09:22.997Z,1009.59
2017-02-17T10:10:32.795Z,1009.63
2017-02-17T10:11:43.457Z,1009.61
2017-02-17T10:12:52.767Z,1009.65
2017-02-17T10:14:02.951Z,1009.67
2017-02-17T10:15:13.168Z,1009.61
2017-02-17T10:16:22.978Z,1009.59
2017-02-17T10:17:32.735Z,1009.61
2017-02-17T10:18:42.043Z,1009.63
2017-02-17T10:19:51.362Z,1009.63
2017-02-17T10:21:01.981Z,1009.63
2017-02-17T10:22:11.994Z,1009.67
2017-02-17T10:23:21.744Z,1009.58
2017-02-17T10:24:32.369Z,1009.59
2017-02-17T10:25:42.127Z,1009.57
2017-02-17T10:26:51.906Z,1009.58
2017-02-17T10:28:01.704Z,1009.61
2017-02-17T10:29:11.022Z,1009.63
2017-02-17T10:30:20.327Z,1009.62
2017-02-17T10:31:30.505Z,1009.65
2017-02-17T10:32:39.835Z,1009.63
2017-02-17T10:33:50.608Z,1009.61
2017-02-17T10:35:00.391Z,1009.58
2017-02-17T10:36:10.572Z,1009.61
2017-02-17T10:37:20.762Z,1009.66
2017-02-17T10:38:30.087Z,1009.73
2017-02-17T10:39:40.333Z,1009.69
2017-02-17T10:40:50.088Z,1009.72
2017-02-17T10:41:59.830Z,1009.69
2017-02-17T10:43:10.009Z,1009.74
2017-02-17T10:44:19.751Z,1009.75
2017-02-17T10:45:30.428Z,1009.73
2017-02-17T10:46:40.614Z,1009.72
2017-02-17T10:47:51.241Z,1009.81
2017-02-17T10:49:00.553Z,1009.79
2017-02-17T10:50:10.320Z,1009.79
2017-02-17T10:51:20.166Z,1009.78
2017-02-17T10:52:30.354Z,1009.79
2017-02-17T10:53:39.682Z,1009.8
2017-02-17T10:54:49.007Z,1009.69
2017-02-17T10:55:59.198Z,1009.71
2017-02-17T10:57:08.998Z,1009.75
2017-02-17T10:58:18.771Z,1009.77
2017-02-17T10:59:28.981Z,1009.75
2017-02-17T11:00:39.183Z,1009.69
2017-02-17T11:01:49.407Z,1009.72
2017-02-17T11:03:00.100Z,1009.79
2017-02-17T11:04:10.720Z,1009.77
2017-02-17T11:05:20.454Z,1009.79
2017-02-17T11:06:29.782Z,1009.76
2017-02-17T11:07:39.558Z,1009.77
2017-02-17T11:08:49.379Z,1009.83
2017-02-17T11:09:59.135Z,1009.84
2017-02-17T11:11:08.437Z,1009.81
2017-02-17T11:12:19.055Z,1009.82
2017-02-17T11:13:28.398Z,1009.81
2017-02-17T11:14:38.649Z,1009.79
2017-02-17T11:15:49.287Z,1009.82
2017-02-17T11:16:58.630Z,1009.83
2017-02-17T11:18:09.273Z,1009.85
2017-02-17T11:19:19.049Z,1009.85
2017-02-17T11:20:28.858Z,1009.81
2017-02-17T11:21:39.052Z,1009.89
2017-02-17T11:22:48.794Z,1009.86
2017-02-17T11:23:58.538Z,1009.76
2017-02-17T11:25:08.751Z,1009.8
2017-02-17T11:26:18.983Z,1009.84
2017-02-17T11:27:29.173Z,1009.82
2017-02-17T11:28:38.946Z,1009.8
2017-02-17T11:29:48.278Z,1009.82
2017-02-17T11:30:58.476Z,1009.84
2017-02-17T11:32:08.269Z,1009.85
2017-02-17T11:33:18.452Z,1009.79
2017-02-17T11:34:29.104Z,1009.79
2017-02-17T11:35:38.858Z,1009.81
2017-02-17T11:36:48.612Z,1009.81
2017-02-17T11:37:57.972Z,1009.8
2017-02-17T11:39:07.728Z,1009.79
2017-02-17T11:40:17.470Z,1009.78
2017-02-17T11:41:26.796Z,1009.77
2017-02-17T11:42:36.553Z,1009.77
2017-02-17T11:43:47.346Z,1009.78
2017-02-17T11:44:57.527Z,1009.74
2017-02-17T11:46:06.847Z,1009.75
2017-02-17T11:47:17.480Z,1009.74
2017-02-17T11:48:27.231Z,1009.71
2017-02-17T11:49:37.896Z,1009.8
2017-02-17T11:50:48.078Z,1009.76
2017-02-17T11:51:57.426Z,1009.76
2017-02-17T11:53:07.630Z,1009.72
2017-02-17T11:54:17.380Z,1009.7
2017-02-17T11:55:26.742Z,1009.74
2017-02-17T11:56:37.363Z,1009.73
2017-02-17T11:57:47.997Z,1009.74
2017-02-17T11:58:57.296Z,1009.73
2017-02-17T12:00:06.610Z,1009.73
2017-02-17T12:01:17.296Z,1009.75
2017-02-17T12:02:27.491Z,1009.79
2017-02-17T12:03:38.111Z,1009.75
2017-02-17T12:04:47.848Z,1009.81
2017-02-17T12:05:57.627Z,1009.8
2017-02-17T12:07:07.430Z,1009.76
2017-02-17T12:08:17.164Z,1009.79
2017-02-17T12:09:27.364Z,1009.86
2017-02-17T12:10:37.566Z,1009.84
2017-02-17T12:11:47.807Z,1009.84
2017-02-17T12:12:57.608Z,1009.87
2017-02-17T12:14:07.348Z,1009.83
2017-02-17T12:15:17.092Z,1009.84
2017-02-17T12:16:27.290Z,1009.87
2017-02-17T12:17:37.471Z,1009.85
2017-02-17T12:18:47.414Z,1009.85
2017-02-17T12:19:57.177Z,1009.83
2017-02-17T12:21:06.945Z,1009.86
2017-02-17T12:22:17.134Z,1009.86
2017-02-17T12:23:26.939Z,1009.85
2017-02-17T12:24:36.730Z,1009.88
2017-02-17T12:25:47.385Z,1009.89
2017-02-17T12:26:56.702Z,1009.86
2017-02-17T12:28:06.891Z,1009.87
2017-02-17T12:29:17.069Z,1009.85
2017-02-17T12:30:27.317Z,1009.85
2017-02-17T12:31:37.525Z,1009.86
2017-02-17T12:32:47.311Z,1009.82
2017-02-17T12:33:57.069Z,1009.88
2017-02-17T12:35:06.382Z,1009.83
2017-02-17T12:36:16.615Z,1009.84
2017-02-17T12:37:25.917Z,1009.81
2017-02-17T12:38:36.106Z,1009.86
2017-02-17T12:39:46.287Z,1009.82
2017-02-17T12:40:55.624Z,1009.82
2017-02-17T12:42:05.868Z,1009.8
2017-02-17T12:43:15.609Z,1009.84
2017-02-17T12:44:24.916Z,1009.79
2017-02-17T12:45:34.657Z,1009.8
2017-02-17T12:46:43.970Z,1009.79
2017-02-17T12:47:53.787Z,1009.83
2017-02-17T12:49:03.972Z,1009.79
2017-02-17T12:50:13.316Z,1009.84
2017-02-17T12:51:23.507Z,1009.84
2017-02-17T12:52:33.690Z,1009.8
2017-02-17T12:53:44.373Z,1009.82
2017-02-17T12:54:54.612Z,1009.81
2017-02-17T12:56:04.379Z,1009.83
2017-02-17T12:57:14.579Z,1009.82
2017-02-17T12:58:24.761Z,1009.83
2017-02-17T12:59:35.011Z,1009.8
2017-02-17T13:00:44.336Z,1009.87
2017-02-17T13:01:54.548Z,1009.82
2017-02-17T13:03:04.732Z,1009.84
2017-02-17T13:04:15.392Z,1009.85
2017-02-17T13:05:25.925Z,1009.86
2017-02-17T13:06:35.835Z,1009.83
2017-02-17T13:07:45.598Z,1009.87
2017-02-17T13:08:55.339Z,1009.84
2017-02-17T13:10:05.116Z,1009.85
2017-02-17T13:11:15.348Z,1009.9
2017-02-17T13:12:25.087Z,1009.91
2017-02-17T13:13:35.716Z,1009.89
2017-02-17T13:14:46.345Z,1009.87
2017-02-17T13:15:56.092Z,1009.88
2017-02-17T13:17:05.891Z,1009.91
2017-02-17T13:18:15.660Z,1009.89
2017-02-17T13:19:24.979Z,1009.85
2017-02-17T13:20:34.763Z,1009.87
2017-02-17T13:21:44.505Z,1009.86
2017-02-17T13:22:54.730Z,1009.83
2017-02-17T13:24:04.910Z,1009.82
2017-02-17T13:25:15.096Z,1009.82
2017-02-17T13:26:24.414Z,1009.79
2017-02-17T13:27:33.715Z,1009.81
2017-02-17T13:28:43.968Z,1009.79
2017-02-17T13:29:53.720Z,1009.8
2017-02-17T13:31:03.038Z,1009.8
2017-02-17T13:32:13.660Z,1009.81
2017-02-17T13:33:23.861Z,1009.83
2017-02-17T13:34:33.672Z,1009.82
2017-02-17T13:35:43.857Z,1009.81
2017-02-17T13:36:53.168Z,1009.8
2017-02-17T13:38:02.493Z,1009.79
2017-02-17T13:39:11.794Z,1009.8
2017-02-17T13:40:21.160Z,1009.8
2017-02-17T13:41:31.789Z,1009.82
2017-02-17T13:42:41.530Z,1009.82
2017-02-17T13:43:51.714Z,1009.77
2017-02-17T13:45:01.465Z,1009.85
2017-02-17T13:46:11.710Z,1009.83
2017-02-17T13:47:21.919Z,1009.87
2017-02-17T13:48:31.673Z,1009.83
2017-02-17T13:49:40.990Z,1009.91
2017-02-17T13:50:50.738Z,1009.88
2017-02-17T13:52:00.688Z,1009.89
2017-02-17T13:53:10.437Z,1009.86
2017-02-17T13:54:20.645Z,1009.85
2017-02-17T13:55:30.393Z,1009.87
2017-02-17T13:56:40.607Z,1009.88
2017-02-17T13:57:50.424Z,1009.89
2017-02-17T13:58:59.741Z,1009.88
2017-02-17T14:00:09.503Z,1009.9
2017-02-17T14:01:19.244Z,1009.89
2017-02-17T14:02:28.992Z,1009.9
2017-02-17T14:03:39.223Z,1009.94
2017-02-17T14:04:48.967Z,1009.95
2017-02-17T14:05:58.713Z,1009.95
2017-02-17T14:07:08.029Z,1009.99
2017-02-17T14:08:17.792Z,1009.96
2017-02-17T14:09:28.028Z,1010